Carnival Miracle — H3VS — position and weather

sailwx.info

Track history (hours):
 
Tides and Currents Weather Stations Pressure Air Temp Water Temp Dewpoint Dewpoint Depression Visibility Wind Speed Wind Dir Waves Ship Positions

Carnival Miracle

Operator: Carnival Cruise Lines

Last reported at 2017-Aug-20 12:00 UTC. Time now 2017-Aug-20 20:43 UTC.
Position N 30°00' W 116°36'.

Type: Ship. MMSI: 35437000.

Wind from 280 at 13 knots

Barometer 1014.0 mb
Air temperature 20.0 ° C
Visibility: greater than 10.8 NM
Dewpoint 16.9 ° C
Water temperature 22.0 ° C

Date/timePositionNaut miles runAvg speedWind from/ knotsBaromVisibWave heightAir tempDewpointWater temp
2017-Aug-20 12:00N 30°00' W 116°36'5123.8 280 / 131014.010.8 20.016.922.0
2017-Aug-20 09:51N 30°47' W 116°59'720.8
2017-Aug-20 09:30N 30°54' W 117°02'1121.1
2017-Aug-20 09:00N 31°04' W 117°06'1721.1
2017-Aug-20 08:13N 31°19' W 117°13'1121.1
2017-Aug-20 07:42N 31°30' W 117°17'420.9
2017-Aug-20 07:30N 31°33' W 117°19'1321.1
2017-Aug-20 06:54N 31°45' W 117°24'821.2
2017-Aug-20 06:30N 31°53' W 117°28'1020.9
2017-Aug-20 06:00N 32°03' W 117°32'1020.4
2017-Aug-20 05:31N 32°12' W 117°36'1020.6
2017-Aug-20 05:01N 32°22' W 117°40'1020.8
2017-Aug-20 04:30N 32°32' W 117°45'1020.6
2017-Aug-20 04:00N 32°42' W 117°48'1121.0
2017-Aug-20 03:30N 32°52' W 117°52'1020.9
2017-Aug-20 03:01N 33°02' W 117°55'1020.7
2017-Aug-20 02:31N 33°11' W 118°01'1020.7
2017-Aug-20 02:01N 33°20' W 118°07'1020.6
2017-Aug-20 01:30N 33°30' W 118°11'815.4
2017-Aug-20 01:00N 33°37' W 118°13'611.4
2017-Aug-20 00:30N 33°43' W 118°11'2 4.3
2017-Aug-19 23:59N 33°45' W 118°11'0 0.0
2017-Aug-19 23:29N 33°45' W 118°11'0 0.0
2017-Aug-19 22:58N 33°45' W 118°11'0 0.0
2017-Aug-19 22:28N 33°45' W 118°11'0 0.0
2017-Aug-19 21:58N 33°45' W 118°11'0 0.0
2017-Aug-19 21:10N 33°45' W 118°11'0 0.0
2017-Aug-19 20:57N 33°45' W 118°11'0 0.0
2017-Aug-19 20:27N 33°45' W 118°11'0 0.0
2017-Aug-19 19:33N 33°45' W 118°11'0 0.0
2017-Aug-19 19:12N 33°45' W 118°11'0 0.0
2017-Aug-19 19:00N 33°45' W 118°11'0 0.0
2017-Aug-19 18:29N 33°45' W 118°11'0 0.0
2017-Aug-19 17:56N 33°45' W 118°11'0 0.0
2017-Aug-19 17:26N 33°45' W 118°11'0 0.0
2017-Aug-19 16:59N 33°45' W 118°11'0 0.0
2017-Aug-19 16:29N 33°45' W 118°11'0 0.0
2017-Aug-19 15:58N 33°45' W 118°11'0 0.0
2017-Aug-19 15:28N 33°45' W 118°11'0 0.0
2017-Aug-19 14:55N 33°45' W 118°11'0 0.1
2017-Aug-19 14:00N 33°45' W 118°11'1 1.8
2017-Aug-19 13:30N 33°44' W 118°11'510.2
2017-Aug-19 13:00N 33°39' W 118°10'10644.5
2017-Aug-19 13:00N 33°30' W 118°06'4 7.9 260 / 121014.010.8 20.016.921.0
2017-Aug-19 12:30N 33°33' W 118°08'611.4
2017-Aug-19 12:00N 33°28' W 118°06'611.4
2017-Aug-19 11:30N 33°23' W 118°04'612.8
2017-Aug-19 11:00N 33°17' W 118°01'918.3
2017-Aug-19 10:30N 33°08' W 117°57'918.2
2017-Aug-19 10:00N 32°60' W 117°53'918.0
2017-Aug-19 09:30N 32°51' W 117°49'918.3
2017-Aug-19 09:00N 32°43' W 117°45'918.0
2017-Aug-19 08:30N 32°34' W 117°41'918.1
2017-Aug-19 08:01N 32°26' W 117°39'917.7
2017-Aug-19 07:30N 32°18' W 117°34'917.9
2017-Aug-19 07:00N 32°09' W 117°30'917.8
2017-Aug-19 06:28N 32°00' W 117°26'817.3
2017-Aug-19 06:00N 31°53' W 117°23'917.0
2017-Aug-19 05:30N 31°45' W 117°19'917.2
2017-Aug-19 05:00N 31°37' W 117°16'2817.2
2017-Aug-19 03:24N 31°11' W 117°03'717.1
2017-Aug-19 03:00N 31°05' W 117°00'917.3
2017-Aug-19 02:29N 30°57' W 116°56'817.3
2017-Aug-19 02:00N 30°49' W 116°53'1017.5
2017-Aug-19 01:26N 30°40' W 116°49'817.6
2017-Aug-19 01:00N 30°33' W 116°45'1317.5
2017-Aug-19 00:16N 30°21' W 116°40'517.3
2017-Aug-19 00:00N 30°16' W 116°38'917.3
2017-Aug-18 23:29N 30°08' W 116°34'22319.4
2017-Aug-18 12:00N 26°54' W 114°30'41219.6 320 / 211014.010.8 21.018.020.0
2017-Aug-17 15:00N 22°12' W 109°00'5618.5 230 / 71014.010.8 29.026.329.0
2017-Aug-17 12:00N 21°48' W 108°06'98 2.0 230 / 51014.010.8 29.025.030.0
2017-Aug-15 12:00N 22°48' W 109°30'108 4.5 260 / 161011.010.8 30.026.030.0
2017-Aug-14 12:00N 23°42' W 111°12'25121.2 360 / 51012.010.8
2017-Aug-14 00:09N 26°40' W 114°28'321.5
2017-Aug-14 00:00N 26°42' W 114°30'1121.6
2017-Aug-13 23:30N 26°50' W 114°38'1121.1
2017-Aug-13 23:00N 26°58' W 114°46'1020.7
2017-Aug-13 22:30N 27°06' W 114°53'1020.5
2017-Aug-13 22:00N 27°14' W 115°01'1020.3
2017-Aug-13 21:30N 27°22' W 115°08'1020.4
2017-Aug-13 21:00N 27°30' W 115°15'1120.2
2017-Aug-13 20:29N 27°38' W 115°23'1720.1
2017-Aug-13 19:38N 27°51' W 115°35'220.1
2017-Aug-13 19:30N 27°53' W 115°37'1020.3
2017-Aug-13 19:00N 28°01' W 115°45'1720.5
2017-Aug-13 18:09N 28°16' W 115°54'320.2
2017-Aug-13 18:00N 28°19' W 115°55'1820.4
2017-Aug-13 17:07N 28°36' W 116°02'1920.6
2017-Aug-13 16:11N 28°54' W 116°10'420.5
2017-Aug-13 16:00N 28°57' W 116°11'2520.5
2017-Aug-13 14:46N 29°21' W 116°22'1020.5
2017-Aug-13 14:17N 29°30' W 116°25'820.6
2017-Aug-13 13:55N 29°38' W 116°29'1720.5
2017-Aug-13 13:06N 29°53' W 116°35'619.9
2017-Aug-13 12:48N 29°59' W 116°38'619.8
2017-Aug-13 12:29N 30°04' W 116°40'611.6
2017-Aug-13 12:00N 30°00' W 116°36'16502.3 350 / 101014.010.8
2017-Aug-13 11:58N 30°14' W 116°44'919.8
2017-Aug-13 11:30N 30°23' W 116°48'1020.1
2017-Aug-13 11:00N 30°32' W 116°52'1020.1
2017-Aug-13 10:30N 30°42' W 116°56'1020.4
2017-Aug-13 10:00N 30°51' W 117°00'1020.7
2017-Aug-13 09:30N 31°01' W 117°05'1020.3
2017-Aug-13 09:00N 31°10' W 117°09'1020.5
2017-Aug-13 08:30N 31°20' W 117°11'1020.1
2017-Aug-13 08:00N 31°29' W 117°17'1020.5
2017-Aug-13 07:30N 31°39' W 117°21'1020.5
2017-Aug-13 07:00N 31°48' W 117°25'1020.5
2017-Aug-13 06:30N 31°58' W 117°30'1020.5
2017-Aug-13 06:00N 32°07' W 117°34'1020.4
2017-Aug-13 05:30N 32°17' W 117°38'1021.0
2017-Aug-13 05:00N 32°27' W 117°42'1020.9
2017-Aug-13 04:30N 32°37' W 117°47'1020.4
2017-Aug-13 04:00N 32°46' W 117°51'1020.3
2017-Aug-13 03:30N 32°56' W 117°52'1020.5
2017-Aug-13 03:00N 33°05' W 117°58'1020.0
2017-Aug-13 02:30N 33°14' W 118°03'1020.2
2017-Aug-13 02:00N 33°24' W 118°08'1019.2
2017-Aug-13 01:30N 33°33' W 118°12'713.6
2017-Aug-13 01:00N 33°39' W 118°12'510.6
2017-Aug-13 00:30N 33°45' W 118°11'1 0.9
2017-Aug-12 23:55N 33°45' W 118°11'0 0.0
2017-Aug-12 23:28N 33°45' W 118°11'0 0.0
2017-Aug-12 22:58N 33°45' W 118°11'0 0.0
2017-Aug-12 22:30N 33°45' W 118°11'0 0.0
2017-Aug-12 22:00N 33°45' W 118°11'0 0.0
2017-Aug-12 21:21N 33°45' W 118°11'0 0.0
2017-Aug-12 21:00N 33°45' W 118°11'0 0.0
2017-Aug-12 20:27N 33°45' W 118°11'0 0.0
2017-Aug-12 19:59N 33°45' W 118°11'0 0.0
2017-Aug-12 19:23N 33°45' W 118°11'0 0.0
2017-Aug-12 18:59N 33°45' W 118°11'0 0.0
2017-Aug-12 18:29N 33°45' W 118°11'0 0.2
2017-Aug-12 18:00N 33°45' W 118°11'0 0.0
2017-Aug-12 17:30N 33°45' W 118°11'0 0.2
2017-Aug-12 16:52N 33°45' W 118°11'0 0.0
2017-Aug-12 16:28N 33°45' W 118°11'0 0.0
2017-Aug-12 15:43N 33°45' W 118°11'0 0.0
2017-Aug-12 15:28N 33°45' W 118°11'0 0.0
2017-Aug-12 14:57N 33°45' W 118°11'0 0.0
2017-Aug-12 14:30N 33°45' W 118°11'0 0.1
2017-Aug-12 14:00N 33°45' W 118°11'1 1.8
2017-Aug-12 13:30N 33°44' W 118°11'5 9.7
2017-Aug-12 13:00N 33°39' W 118°10'611.8
2017-Aug-12 12:30N 33°34' W 118°09'611.8
2017-Aug-12 12:00N 33°28' W 118°06'2132.6
2017-Aug-12 12:00N 33°30' W 118°06'815.9 180 / 51012.010.8 20.018.520.0
2017-Aug-12 11:30N 33°23' W 118°04'815.4
2017-Aug-12 11:00N 33°16' W 118°00'917.8
2017-Aug-12 10:30N 33°07' W 117°56'917.8
2017-Aug-12 10:00N 32°59' W 117°52'917.9
2017-Aug-12 09:30N 32°50' W 117°49'917.8
2017-Aug-12 09:00N 32°42' W 117°46'917.9
2017-Aug-12 08:30N 32°34' W 117°41'917.6
2017-Aug-12 08:00N 32°26' W 117°37'917.6
2017-Aug-12 07:31N 32°18' W 117°33'917.6
2017-Aug-12 07:00N 32°09' W 117°30'917.4
2017-Aug-12 06:30N 32°01' W 117°25'917.2
2017-Aug-12 06:00N 31°53' W 117°21'1017.2
2017-Aug-12 05:26N 31°44' W 117°18'717.1
2017-Aug-12 05:00N 31°37' W 117°15'916.7
2017-Aug-12 04:29N 31°29' W 117°11'816.3
2017-Aug-12 04:00N 31°22' W 117°08'916.7
2017-Aug-12 03:28N 31°14' W 117°04'818.1
2017-Aug-12 03:00N 31°06' W 117°00'919.0
2017-Aug-12 02:30N 30°57' W 116°56'1019.1
2017-Aug-12 02:00N 30°48' W 116°52'1019.4
2017-Aug-12 01:30N 30°39' W 116°48'1219.6
2017-Aug-12 00:53N 30°28' W 116°43'819.7
2017-Aug-12 00:30N 30°20' W 116°40'1119.7
2017-Aug-11 23:56N 30°10' W 116°35'919.7
2017-Aug-11 23:29N 30°02' W 116°32'3519.7
2017-Aug-11 21:43N 29°30' W 116°17'2919.8
2017-Aug-11 20:16N 29°03' W 116°05'819.9
2017-Aug-11 19:53N 28°56' W 116°02'3119.8
2017-Aug-11 18:20N 28°27' W 115°49'2319.9
2017-Aug-11 17:11N 28°07' W 115°37'920.1
2017-Aug-11 16:44N 27°60' W 115°31'720.1
2017-Aug-11 16:24N 27°55' W 115°26'2219.5
2017-Aug-11 15:18N 27°38' W 115°11'619.6
2017-Aug-11 15:00N 27°33' W 115°07'1919.4
2017-Aug-11 14:02N 27°18' W 114°54'1019.0
2017-Aug-11 13:30N 27°10' W 114°47'918.7
2017-Aug-11 13:00N 27°03' W 114°41'1018.9
2017-Aug-11 12:27N 26°55' W 114°33'715.9
2017-Aug-11 12:00N 26°48' W 114°30'   320 / 121012.010.8 21.019.521.0
Track history (hours):
 
Tides and Currents Weather Stations Pressure Air Temp Water Temp Dewpoint Dewpoint Depression Visibility Wind Speed Wind Dir Waves Ship Positions

Carnival Miracle

Operator: Carnival Cruise Lines

Last reported at 2017-Aug-20 12:00 UTC. Time now 2017-Aug-20 20:43 UTC.
Position N 30°00' W 116°36'.

Type: Ship. MMSI: 35437000.

Wind from 280 at 13 knots

Barometer 1014.0 mb
Air temperature 20.0 ° C
Visibility: greater than 10.8 NM
Dewpoint 16.9 ° C
Water temperature 22.0 ° C

Date/timePositionNaut miles runAvg speedWind from/ knotsBaromVisibWave heightAir tempDewpointWater temp
2017-Aug-20 12:00N 30°00' W 116°36'5123.8 280 / 131014.010.8 20.016.922.0
2017-Aug-20 09:51N 30°47' W 116°59'720.8
2017-Aug-20 09:30N 30°54' W 117°02'1121.1
2017-Aug-20 09:00N 31°04' W 117°06'1721.1
2017-Aug-20 08:13N 31°19' W 117°13'1121.1
2017-Aug-20 07:42N 31°30' W 117°17'420.9
2017-Aug-20 07:30N 31°33' W 117°19'1321.1
2017-Aug-20 06:54N 31°45' W 117°24'821.2
2017-Aug-20 06:30N 31°53' W 117°28'1020.9
2017-Aug-20 06:00N 32°03' W 117°32'1020.4
2017-Aug-20 05:31N 32°12' W 117°36'1020.6
2017-Aug-20 05:01N 32°22' W 117°40'1020.8
2017-Aug-20 04:30N 32°32' W 117°45'1020.6
2017-Aug-20 04:00N 32°42' W 117°48'1121.0
2017-Aug-20 03:30N 32°52' W 117°52'1020.9
2017-Aug-20 03:01N 33°02' W 117°55'1020.7
2017-Aug-20 02:31N 33°11' W 118°01'1020.7
2017-Aug-20 02:01N 33°20' W 118°07'1020.6
2017-Aug-20 01:30N 33°30' W 118°11'815.4
2017-Aug-20 01:00N 33°37' W 118°13'611.4
2017-Aug-20 00:30N 33°43' W 118°11'2 4.3
2017-Aug-19 23:59N 33°45' W 118°11'0 0.0
2017-Aug-19 23:29N 33°45' W 118°11'0 0.0
2017-Aug-19 22:58N 33°45' W 118°11'0 0.0
2017-Aug-19 22:28N 33°45' W 118°11'0 0.0
2017-Aug-19 21:58N 33°45' W 118°11'0 0.0
2017-Aug-19 21:10N 33°45' W 118°11'0 0.0
2017-Aug-19 20:57N 33°45' W 118°11'0 0.0
2017-Aug-19 20:27N 33°45' W 118°11'0 0.0
2017-Aug-19 19:33N 33°45' W 118°11'0 0.0
2017-Aug-19 19:12N 33°45' W 118°11'0 0.0
2017-Aug-19 19:00N 33°45' W 118°11'0 0.0
2017-Aug-19 18:29N 33°45' W 118°11'0 0.0
2017-Aug-19 17:56N 33°45' W 118°11'0 0.0
2017-Aug-19 17:26N 33°45' W 118°11'0 0.0
2017-Aug-19 16:59N 33°45' W 118°11'0 0.0
2017-Aug-19 16:29N 33°45' W 118°11'0 0.0
2017-Aug-19 15:58N 33°45' W 118°11'0 0.0
2017-Aug-19 15:28N 33°45' W 118°11'0 0.0
2017-Aug-19 14:55N 33°45' W 118°11'0 0.1
2017-Aug-19 14:00N 33°45' W 118°11'1 1.8
2017-Aug-19 13:30N 33°44' W 118°11'510.2
2017-Aug-19 13:00N 33°39' W 118°10'10644.5
2017-Aug-19 13:00N 33°30' W 118°06'4 7.9 260 / 121014.010.8 20.016.921.0
2017-Aug-19 12:30N 33°33' W 118°08'611.4
2017-Aug-19 12:00N 33°28' W 118°06'611.4
2017-Aug-19 11:30N 33°23' W 118°04'612.8
2017-Aug-19 11:00N 33°17' W 118°01'918.3
2017-Aug-19 10:30N 33°08' W 117°57'918.2
2017-Aug-19 10:00N 32°60' W 117°53'918.0
2017-Aug-19 09:30N 32°51' W 117°49'918.3
2017-Aug-19 09:00N 32°43' W 117°45'918.0
2017-Aug-19 08:30N 32°34' W 117°41'918.1
2017-Aug-19 08:01N 32°26' W 117°39'917.7
2017-Aug-19 07:30N 32°18' W 117°34'917.9
2017-Aug-19 07:00N 32°09' W 117°30'917.8
2017-Aug-19 06:28N 32°00' W 117°26'817.3
2017-Aug-19 06:00N 31°53' W 117°23'917.0
2017-Aug-19 05:30N 31°45' W 117°19'917.2
2017-Aug-19 05:00N 31°37' W 117°16'2817.2
2017-Aug-19 03:24N 31°11' W 117°03'717.1
2017-Aug-19 03:00N 31°05' W 117°00'917.3
2017-Aug-19 02:29N 30°57' W 116°56'817.3
2017-Aug-19 02:00N 30°49' W 116°53'1017.5
2017-Aug-19 01:26N 30°40' W 116°49'817.6
2017-Aug-19 01:00N 30°33' W 116°45'1317.5
2017-Aug-19 00:16N 30°21' W 116°40'517.3
2017-Aug-19 00:00N 30°16' W 116°38'917.3
2017-Aug-18 23:29N 30°08' W 116°34'22319.4
2017-Aug-18 12:00N 26°54' W 114°30'41219.6 320 / 211014.010.8 21.018.020.0
2017-Aug-17 15:00N 22°12' W 109°00'5618.5 230 / 71014.010.8 29.026.329.0
2017-Aug-17 12:00N 21°48' W 108°06'98 2.0 230 / 51014.010.8 29.025.030.0
2017-Aug-15 12:00N 22°48' W 109°30'108 4.5 260 / 161011.010.8 30.026.030.0
2017-Aug-14 12:00N 23°42' W 111°12'25121.2 360 / 51012.010.8
2017-Aug-14 00:09N 26°40' W 114°28'321.5
2017-Aug-14 00:00N 26°42' W 114°30'1121.6
2017-Aug-13 23:30N 26°50' W 114°38'1121.1
2017-Aug-13 23:00N 26°58' W 114°46'1020.7
2017-Aug-13 22:30N 27°06' W 114°53'1020.5
2017-Aug-13 22:00N 27°14' W 115°01'1020.3
2017-Aug-13 21:30N 27°22' W 115°08'1020.4
2017-Aug-13 21:00N 27°30' W 115°15'1120.2
2017-Aug-13 20:29N 27°38' W 115°23'1720.1
2017-Aug-13 19:38N 27°51' W 115°35'220.1
2017-Aug-13 19:30N 27°53' W 115°37'1020.3
2017-Aug-13 19:00N 28°01' W 115°45'1720.5
2017-Aug-13 18:09N 28°16' W 115°54'320.2
2017-Aug-13 18:00N 28°19' W 115°55'1820.4
2017-Aug-13 17:07N 28°36' W 116°02'1920.6
2017-Aug-13 16:11N 28°54' W 116°10'420.5
2017-Aug-13 16:00N 28°57' W 116°11'2520.5
2017-Aug-13 14:46N 29°21' W 116°22'1020.5
2017-Aug-13 14:17N 29°30' W 116°25'820.6
2017-Aug-13 13:55N 29°38' W 116°29'1720.5
2017-Aug-13 13:06N 29°53' W 116°35'619.9
2017-Aug-13 12:48N 29°59' W 116°38'619.8
2017-Aug-13 12:29N 30°04' W 116°40'611.6
2017-Aug-13 12:00N 30°00' W 116°36'16502.3 350 / 101014.010.8
2017-Aug-13 11:58N 30°14' W 116°44'919.8
2017-Aug-13 11:30N 30°23' W 116°48'1020.1
2017-Aug-13 11:00N 30°32' W 116°52'1020.1
2017-Aug-13 10:30N 30°42' W 116°56'1020.4
2017-Aug-13 10:00N 30°51' W 117°00'1020.7
2017-Aug-13 09:30N 31°01' W 117°05'1020.3
2017-Aug-13 09:00N 31°10' W 117°09'1020.5
2017-Aug-13 08:30N 31°20' W 117°11'1020.1
2017-Aug-13 08:00N 31°29' W 117°17'1020.5
2017-Aug-13 07:30N 31°39' W 117°21'1020.5
2017-Aug-13 07:00N 31°48' W 117°25'1020.5
2017-Aug-13 06:30N 31°58' W 117°30'1020.5
2017-Aug-13 06:00N 32°07' W 117°34'1020.4
2017-Aug-13 05:30N 32°17' W 117°38'1021.0
2017-Aug-13 05:00N 32°27' W 117°42'1020.9
2017-Aug-13 04:30N 32°37' W 117°47'1020.4
2017-Aug-13 04:00N 32°46' W 117°51'1020.3
2017-Aug-13 03:30N 32°56' W 117°52'1020.5
2017-Aug-13 03:00N 33°05' W 117°58'1020.0
2017-Aug-13 02:30N 33°14' W 118°03'1020.2
2017-Aug-13 02:00N 33°24' W 118°08'1019.2
2017-Aug-13 01:30N 33°33' W 118°12'713.6
2017-Aug-13 01:00N 33°39' W 118°12'510.6
2017-Aug-13 00:30N 33°45' W 118°11'1 0.9
2017-Aug-12 23:55N 33°45' W 118°11'0 0.0
2017-Aug-12 23:28N 33°45' W 118°11'0 0.0
2017-Aug-12 22:58N 33°45' W 118°11'0 0.0
2017-Aug-12 22:30N 33°45' W 118°11'0 0.0
2017-Aug-12 22:00N 33°45' W 118°11'0 0.0
2017-Aug-12 21:21N 33°45' W 118°11'0 0.0
2017-Aug-12 21:00N 33°45' W 118°11'0 0.0
2017-Aug-12 20:27N 33°45' W 118°11'0 0.0
2017-Aug-12 19:59N 33°45' W 118°11'0 0.0
2017-Aug-12 19:23N 33°45' W 118°11'0 0.0
2017-Aug-12 18:59N 33°45' W 118°11'0 0.0
2017-Aug-12 18:29N 33°45' W 118°11'0 0.2
2017-Aug-12 18:00N 33°45' W 118°11'0 0.0
2017-Aug-12 17:30N 33°45' W 118°11'0 0.2
2017-Aug-12 16:52N 33°45' W 118°11'0 0.0
2017-Aug-12 16:28N 33°45' W 118°11'0 0.0
2017-Aug-12 15:43N 33°45' W 118°11'0 0.0
2017-Aug-12 15:28N 33°45' W 118°11'0 0.0
2017-Aug-12 14:57N 33°45' W 118°11'0 0.0
2017-Aug-12 14:30N 33°45' W 118°11'0 0.1
2017-Aug-12 14:00N 33°45' W 118°11'1 1.8
2017-Aug-12 13:30N 33°44' W 118°11'5 9.7
2017-Aug-12 13:00N 33°39' W 118°10'611.8
2017-Aug-12 12:30N 33°34' W 118°09'611.8
2017-Aug-12 12:00N 33°28' W 118°06'2132.6
2017-Aug-12 12:00N 33°30' W 118°06'815.9 180 / 51012.010.8 20.018.520.0
2017-Aug-12 11:30N 33°23' W 118°04'815.4
2017-Aug-12 11:00N 33°16' W 118°00'917.8
2017-Aug-12 10:30N 33°07' W 117°56'917.8
2017-Aug-12 10:00N 32°59' W 117°52'917.9
2017-Aug-12 09:30N 32°50' W 117°49'917.8
2017-Aug-12 09:00N 32°42' W 117°46'917.9
2017-Aug-12 08:30N 32°34' W 117°41'917.6
2017-Aug-12 08:00N 32°26' W 117°37'917.6
2017-Aug-12 07:31N 32°18' W 117°33'917.6
2017-Aug-12 07:00N 32°09' W 117°30'917.4
2017-Aug-12 06:30N 32°01' W 117°25'917.2
2017-Aug-12 06:00N 31°53' W 117°21'1017.2
2017-Aug-12 05:26N 31°44' W 117°18'717.1
2017-Aug-12 05:00N 31°37' W 117°15'916.7
2017-Aug-12 04:29N 31°29' W 117°11'816.3
2017-Aug-12 04:00N 31°22' W 117°08'916.7
2017-Aug-12 03:28N 31°14' W 117°04'818.1
2017-Aug-12 03:00N 31°06' W 117°00'919.0
2017-Aug-12 02:30N 30°57' W 116°56'1019.1
2017-Aug-12 02:00N 30°48' W 116°52'1019.4
2017-Aug-12 01:30N 30°39' W 116°48'1219.6
2017-Aug-12 00:53N 30°28' W 116°43'819.7
2017-Aug-12 00:30N 30°20' W 116°40'1119.7
2017-Aug-11 23:56N 30°10' W 116°35'919.7
2017-Aug-11 23:29N 30°02' W 116°32'3519.7
2017-Aug-11 21:43N 29°30' W 116°17'2919.8
2017-Aug-11 20:16N 29°03' W 116°05'819.9
2017-Aug-11 19:53N 28°56' W 116°02'3119.8
2017-Aug-11 18:20N 28°27' W 115°49'2319.9
2017-Aug-11 17:11N 28°07' W 115°37'920.1
2017-Aug-11 16:44N 27°60' W 115°31'720.1
2017-Aug-11 16:24N 27°55' W 115°26'2219.5
2017-Aug-11 15:18N 27°38' W 115°11'619.6
2017-Aug-11 15:00N 27°33' W 115°07'1919.4
2017-Aug-11 14:02N 27°18' W 114°54'1019.0
2017-Aug-11 13:30N 27°10' W 114°47'918.7
2017-Aug-11 13:00N 27°03' W 114°41'1018.9
2017-Aug-11 12:27N 26°55' W 114°33'715.9
2017-Aug-11 12:00N 26°48' W 114°30'   320 / 121012.010.8 21.019.521.0

Dump ship's entire track history